Time;durP1;ratioP1;P1;durP2;ratioP2;P2;SDS_P1;SDS_P2;PMS_P1;PMS_P2;Temp;Humidity;BMP_temperature;BMP_pressure;BME280_temperature;BME280_humidity;BME280_pressure;Samples;Min_cycle;Max_cycle;Signal;HPM_P1;HPM_P2
2022/02/01 00:02:35;;;;;;;6.03;0.97;;;6.00;99.90;;;;;;6177799;23;20193;-92
2022/02/01 00:05:11;;;;;;;0.30;0.30;;;6.10;99.90;;;;;;6154334;23;20455;-92
2022/02/01 00:07:48;;;;;;;0.33;0.33;;;6.00;99.90;;;;;;6128958;23;20194;-92
2022/02/01 00:11:08;;;;;;;0.30;0.30;;;6.00;99.90;;;;;;6127949;23;20253;-92
2022/02/01 00:37:13;;;;;;;0.30;0.30;;;5.90;99.90;;;;;;6176519;23;20198;-89
2022/02/01 00:39:43;;;;;;;3.43;3.23;;;6.00;99.90;;;;;;6151460;23;20238;-90
2022/02/01 00:42:15;;;;;;;0.30;0.30;;;5.90;99.90;;;;;;6127510;23;20211;-90
2022/02/01 00:44:41;;;;;;;0.70;0.63;;;5.90;99.90;;;;;;6150928;23;20195;-90
2022/02/01 00:47:08;;;;;;;0.20;0.20;;;5.90;99.90;;;;;;6151248;23;20158;-89
2022/02/01 00:49:35;;;;;;;3.73;1.80;;;6.00;99.90;;;;;;6176293;23;20417;-90
2022/02/01 00:52:02;;;;;;;0.20;0.20;;;5.90;99.90;;;;;;6149849;23;20220;-91
2022/02/01 00:54:28;;;;;;;0.40;0.40;;;5.90;99.90;;;;;;6150762;23;20277;-90
2022/02/01 00:56:54;;;;;;;0.40;0.40;;;5.90;99.90;;;;;;6176493;23;20309;-90
2022/02/01 00:59:20;;;;;;;0.70;0.70;;;5.90;99.90;;;;;;6102124;23;20179;-91
2022/02/01 01:01:46;;;;;;;0.40;0.30;;;5.90;99.90;;;;;;6125935;23;20199;-90
2022/02/01 01:04:12;;;;;;;0.77;0.77;;;5.90;99.90;;;;;;6125847;23;20537;-91
2022/02/01 01:06:38;;;;;;;0.40;0.40;;;6.00;99.90;;;;;;6125698;23;20191;-90
2022/02/01 01:09:04;;;;;;;3.47;0.93;;;6.00;99.90;;;;;;6175676;23;20196;-91
2022/02/01 01:11:30;;;;;;;1.33;0.80;;;6.00;99.90;;;;;;6150533;23;20195;-91
2022/02/01 01:43:44;;;;;;;0.20;0.20;;;6.00;99.90;;;;;;6175055;23;20206;-88
2022/02/01 01:54:05;;;;;;;0.30;0.30;;;4.80;99.90;;;;;;6175975;23;20198;-90
2022/02/01 01:56:35;;;;;;;0.60;0.60;;;4.80;99.90;;;;;;6150928;23;20193;-90
2022/02/01 01:59:03;;;;;;;0.70;0.70;;;4.80;99.90;;;;;;6150241;23;20269;-89
2022/02/01 02:01:29;;;;;;;1.30;0.70;;;4.80;99.90;;;;;;6150096;23;20202;-89
2022/02/01 02:03:56;;;;;;;0.43;0.43;;;4.80;99.90;;;;;;6176239;23;20195;-92
2022/02/01 02:06:21;;;;;;;1.03;0.50;;;4.80;99.90;;;;;;6125389;23;20199;-91
2022/02/01 02:08:51;;;;;;;0.40;0.40;;;4.70;99.90;;;;;;6126109;23;20173;-89
2022/02/01 02:11:29;;;;;;;0.37;0.37;;;4.70;99.90;;;;;;6103909;23;20163;-91
2022/02/01 02:14:18;;;;;;;0.40;0.40;;;4.70;99.90;;;;;;6150825;23;20205;-91
2022/02/01 02:16:48;;;;;;;0.33;0.33;;;4.70;99.90;;;;;;6176653;23;20277;-91
2022/02/01 02:19:14;;;;;;;0.73;0.73;;;4.70;99.90;;;;;;6175919;23;20214;-92
2022/02/01 02:21:44;;;;;;;1.33;1.23;;;4.70;99.90;;;;;;6126724;23;20217;-91
2022/02/01 02:24:10;;;;;;;0.97;0.97;;;4.70;99.90;;;;;;6152075;23;20229;-91
2022/02/01 02:26:35;;;;;;;9.63;1.43;;;4.70;99.90;;;;;;6151860;23;20159;-91
2022/02/01 02:29:03;;;;;;;0.30;0.30;;;4.70;99.90;;;;;;6152571;23;20177;-91
2022/02/01 02:31:30;;;;;;;0.77;0.60;;;4.80;99.90;;;;;;6127480;23;20653;-91
2022/02/01 02:34:06;;;;;;;1.33;1.07;;;4.80;99.90;;;;;;6152568;23;20195;-92
2022/02/01 02:36:35;;;;;;;0.83;0.23;;;4.80;99.90;;;;;;6177611;23;20634;-91
2022/02/01 02:39:09;;;;;;;0.20;0.20;;;4.80;99.90;;;;;;6177996;23;20222;-91
2022/02/01 02:41:38;;;;;;;5.60;0.60;;;4.90;99.90;;;;;;6177904;23;20221;-91
2022/02/01 02:46:53;;;;;;;0.60;0.60;;;5.00;99.90;;;;;;6178372;23;20206;-93
2022/02/01 02:49:22;;;;;;;0.57;0.57;;;5.10;99.90;;;;;;6151504;23;20209;-90
2022/02/01 02:51:48;;;;;;;1.20;0.30;;;5.10;99.90;;;;;;6151624;23;20201;-91
2022/02/01 02:54:20;;;;;;;0.60;0.60;;;5.20;99.90;;;;;;6151937;23;20198;-90
2022/02/01 02:56:58;;;;;;;0.57;0.57;;;5.20;99.90;;;;;;6177710;23;20147;-89
2022/02/01 02:59:26;;;;;;;0.50;0.50;;;5.20;99.90;;;;;;6152035;23;20697;-90
2022/02/01 03:01:52;;;;;;;0.30;0.30;;;5.30;99.90;;;;;;6151987;23;20213;-91
2022/02/01 03:04:20;;;;;;;0.20;0.20;;;5.30;99.90;;;;;;6151292;23;20552;-90
2022/02/01 03:06:46;;;;;;;0.30;0.30;;;5.40;99.90;;;;;;6126964;23;20199;-90
2022/02/01 03:09:13;;;;;;;0.30;0.30;;;5.40;99.90;;;;;;6177084;23;20206;-90
2022/02/01 03:11:39;;;;;;;0.73;0.40;;;5.40;99.90;;;;;;6151848;23;20182;-91
2022/02/01 03:14:19;;;;;;;0.20;0.20;;;5.40;99.90;;;;;;6151770;23;20250;-91
2022/02/01 03:22:06;;;;;;;0.47;0.47;;;5.50;99.90;;;;;;6186907;23;20258;-92
2022/02/01 03:24:33;;;;;;;3.40;0.90;;;5.50;99.90;;;;;;6161952;23;20205;-91
2022/02/01 03:26:59;;;;;;;0.77;0.77;;;5.50;99.90;;;;;;6185256;23;20471;-91
2022/02/01 03:29:25;;;;;;;0.40;0.40;;;5.50;99.90;;;;;;6156907;23;20165;-92
2022/02/01 03:31:50;;;;;;;0.30;0.30;;;5.40;99.90;;;;;;6180070;23;20664;-92
2022/02/01 03:34:16;;;;;;;0.40;0.40;;;5.40;99.90;;;;;;6178901;23;20237;-92
2022/02/01 03:36:42;;;;;;;7.93;0.50;;;5.50;99.90;;;;;;6132971;23;20190;-92
2022/02/01 03:39:08;;;;;;;0.30;0.30;;;5.50;99.90;;;;;;6157211;23;20211;-92
2022/02/01 03:41:34;;;;;;;0.60;0.60;;;5.50;99.90;;;;;;6182872;23;20199;-86
2022/02/01 03:44:04;;;;;;;0.53;0.53;;;5.60;99.90;;;;;;6132475;23;20183;-92
2022/02/01 03:46:30;;;;;;;13.30;2.33;;;5.60;99.90;;;;;;6180260;23;20203;-93
2022/02/01 03:48:56;;;;;;;1.10;1.10;;;5.60;99.90;;;;;;6129349;23;20237;-92
2022/02/01 03:51:21;;;;;;;1.10;1.10;;;5.70;99.90;;;;;;6155227;23;20208;-92
2022/02/01 03:53:47;;;;;;;1.33;1.23;;;5.60;99.90;;;;;;6154751;23;20159;-91
2022/02/01 03:56:13;;;;;;;1.00;0.47;;;5.70;99.90;;;;;;6183217;23;20174;-92
2022/02/01 03:58:38;;;;;;;2.33;1.47;;;5.70;99.90;;;;;;6155522;23;20206;-92
2022/02/01 04:01:04;;;;;;;0.50;0.50;;;5.80;99.90;;;;;;6181325;23;20206;-91
2022/02/01 04:03:30;;;;;;;0.70;0.70;;;5.80;99.90;;;;;;6130329;23;20214;-91
2022/02/01 04:05:56;;;;;;;2.87;1.10;;;5.80;99.90;;;;;;6157114;23;20195;-91
2022/02/01 04:08:23;;;;;;;2.37;0.70;;;5.80;99.90;;;;;;6106287;23;20159;-91
2022/02/01 04:10:50;;;;;;;2.00;0.67;;;5.90;99.90;;;;;;6153720;23;20704;-91
2022/02/01 04:13:17;;;;;;;3.77;0.67;;;5.90;99.90;;;;;;6180231;23;20203;-92
2022/02/01 04:15:43;;;;;;;2.00;0.80;;;6.00;99.90;;;;;;6154592;23;20221;-90
2022/02/01 04:18:10;;;;;;;2.17;1.40;;;6.00;99.90;;;;;;6180697;23;20702;-92
2022/02/01 04:20:36;;;;;;;0.43;0.43;;;6.10;99.90;;;;;;6129158;23;20175;-92
2022/02/01 04:23:03;;;;;;;1.33;1.23;;;6.10;99.90;;;;;;6129948;23;20173;-92
2022/02/01 04:25:28;;;;;;;0.80;0.80;;;6.20;99.90;;;;;;6153576;23;20199;-92
2022/02/01 04:27:54;;;;;;;0.30;0.30;;;6.20;99.90;;;;;;6152998;23;20209;-93
2022/02/01 04:30:20;;;;;;;0.50;0.50;;;6.30;99.90;;;;;;6128551;23;20198;-90
2022/02/01 04:32:51;;;;;;;1.80;1.07;;;6.20;99.90;;;;;;6153375;23;20165;-91
2022/02/01 04:35:22;;;;;;;0.63;0.53;;;6.20;99.90;;;;;;6154634;23;20201;-92
2022/02/01 04:37:50;;;;;;;0.63;0.63;;;6.30;99.90;;;;;;6181394;23;20219;-91
2022/02/01 04:40:17;;;;;;;0.40;0.40;;;6.30;99.90;;;;;;6129911;23;20210;-91
2022/02/01 04:42:44;;;;;;;16.53;1.10;;;6.30;99.90;;;;;;6131063;23;20211;-93
2022/02/01 04:45:15;;;;;;;9.93;1.43;;;6.30;99.90;;;;;;6130735;23;20202;-90
2022/02/01 04:47:41;;;;;;;2.47;1.70;;;6.20;99.90;;;;;;6156119;23;20328;-92
2022/02/01 04:50:13;;;;;;;0.30;0.30;;;6.30;99.90;;;;;;6183352;23;20591;-91
2022/02/01 04:52:40;;;;;;;2.90;0.87;;;6.30;99.90;;;;;;6182455;23;20259;-92
2022/02/01 04:55:07;;;;;;;2.33;1.63;;;6.30;99.90;;;;;;6182729;23;20203;-92
2022/02/01 04:57:32;;;;;;;1.37;1.27;;;6.40;99.90;;;;;;6156473;23;20194;-94
2022/02/01 04:59:58;;;;;;;1.57;1.37;;;6.40;99.90;;;;;;6157703;23;20632;-89
2022/02/01 05:02:24;;;;;;;2.00;0.50;;;6.30;99.90;;;;;;6157996;23;20159;-91
2022/02/01 05:04:50;;;;;;;2.77;1.33;;;6.40;99.90;;;;;;6160139;23;20281;-91
2022/02/01 05:07:20;;;;;;;2.77;2.13;;;6.40;99.90;;;;;;6153718;23;20640;-91
2022/02/01 05:09:47;;;;;;;3.20;0.90;;;6.40;99.90;;;;;;6153213;23;20202;-91
2022/02/01 05:12:13;;;;;;;1.87;1.67;;;6.40;99.90;;;;;;6153370;23;20203;-92
2022/02/01 05:14:39;;;;;;;0.50;0.50;;;6.40;99.90;;;;;;6153383;23;20186;-93
2022/02/01 05:17:05;;;;;;;0.87;0.83;;;6.40;99.90;;;;;;6154403;23;20587;-92
2022/02/01 05:22:06;;;;;;;1.83;1.03;;;6.50;99.90;;;;;;6178833;23;20502;-92
2022/02/01 05:24:35;;;;;;;1.50;0.83;;;6.50;99.90;;;;;;6152759;23;20414;-91
2022/02/01 05:27:01;;;;;;;10.13;0.93;;;6.50;99.90;;;;;;6128587;23;20270;-90
2022/02/01 05:29:27;;;;;;;1.93;1.73;;;6.50;99.90;;;;;;6152764;23;20170;-90
2022/02/01 05:31:53;;;;;;;11.43;1.27;;;6.40;99.90;;;;;;6127881;23;20259;-91
2022/02/01 05:34:20;;;;;;;4.67;2.47;;;6.50;99.90;;;;;;6152148;23;20198;-92
2022/02/01 05:36:45;;;;;;;0.97;0.67;;;6.50;99.90;;;;;;6177013;23;20285;-92
2022/02/01 05:39:20;;;;;;;0.50;0.50;;;6.50;99.90;;;;;;6151165;23;20493;-93
2022/02/01 05:41:46;;;;;;;0.97;0.97;;;6.60;99.90;;;;;;6149818;23;20198;-92
2022/02/01 05:44:12;;;;;;;1.67;0.97;;;6.60;99.90;;;;;;6176658;23;20165;-93
2022/02/01 05:46:40;;;;;;;7.43;1.73;;;6.60;99.90;;;;;;6175975;23;20202;-91
2022/02/01 05:49:06;;;;;;;3.03;1.37;;;6.60;99.90;;;;;;6150463;23;20285;-92
2022/02/01 05:51:34;;;;;;;1.47;0.80;;;6.60;99.90;;;;;;6125465;23;20235;-92
2022/02/01 05:53:59;;;;;;;3.80;2.40;;;6.70;99.90;;;;;;6125997;23;20256;-91
2022/02/01 05:56:25;;;;;;;2.53;1.40;;;6.70;99.90;;;;;;6151275;23;20494;-90
2022/02/01 05:58:51;;;;;;;0.60;0.60;;;6.70;99.90;;;;;;6126478;23;20205;-90
2022/02/01 06:01:18;;;;;;;1.33;1.23;;;6.70;99.90;;;;;;6127316;23;20194;-89
2022/02/01 06:03:45;;;;;;;2.23;1.67;;;6.70;99.90;;;;;;6103842;23;20199;-90
2022/02/01 06:06:11;;;;;;;6.03;1.73;;;6.70;99.90;;;;;;6151721;23;20202;-90
2022/02/01 06:08:36;;;;;;;2.47;2.37;;;6.70;99.90;;;;;;6150354;23;20159;-91
2022/02/01 06:11:02;;;;;;;3.37;1.50;;;6.60;99.90;;;;;;6152524;23;20159;-90
2022/02/01 06:13:28;;;;;;;1.47;1.37;;;6.70;99.90;;;;;;6151986;23;20198;-91
2022/02/01 06:15:54;;;;;;;2.40;1.13;;;6.60;99.90;;;;;;6127161;23;20274;-91
2022/02/01 06:18:20;;;;;;;1.53;1.43;;;6.60;99.90;;;;;;6151962;23;20236;-91
2022/02/01 06:20:46;;;;;;;3.00;2.70;;;6.60;99.90;;;;;;6151349;23;20166;-90
2022/02/01 06:23:17;;;;;;;1.50;1.03;;;6.60;99.90;;;;;;6127371;23;20245;-91
2022/02/01 06:28:10;;;;;;;1.13;1.10;;;6.60;99.90;;;;;;6152105;23;20306;-92
2022/02/01 06:30:35;;;;;;;2.53;0.93;;;6.60;99.90;;;;;;6126885;23;20233;-91
2022/02/01 06:33:01;;;;;;;1.80;1.37;;;6.60;99.90;;;;;;6103013;23;20201;-92
2022/02/01 06:35:29;;;;;;;11.30;1.50;;;6.60;99.90;;;;;;6152570;23;20162;-91
2022/02/01 06:37:55;;;;;;;1.47;1.37;;;6.70;99.90;;;;;;6151531;23;20221;-91
2022/02/01 06:40:21;;;;;;;0.97;0.97;;;6.60;99.90;;;;;;6127328;23;20676;-92
2022/02/01 06:42:47;;;;;;;1.93;1.83;;;6.70;99.90;;;;;;6151061;23;20217;-89
2022/02/01 06:45:13;;;;;;;2.93;1.20;;;6.60;99.90;;;;;;6152315;23;20198;-89
2022/02/01 06:47:39;;;;;;;1.37;1.13;;;6.60;99.90;;;;;;6151133;23;20159;-90
2022/02/01 06:50:05;;;;;;;3.27;1.67;;;6.70;99.90;;;;;;6152190;23;20581;-90
2022/02/01 06:52:32;;;;;;;0.90;0.90;;;6.70;99.90;;;;;;6151376;23;20198;-89
2022/02/01 06:55:02;;;;;;;1.77;0.87;;;6.70;99.90;;;;;;6151342;23;20527;-88
2022/02/01 06:57:36;;;;;;;1.60;1.50;;;6.70;99.90;;;;;;6128197;23;20201;-88
2022/02/01 07:00:02;;;;;;;4.60;2.80;;;6.70;99.90;;;;;;6151446;23;20206;-91
2022/02/01 07:02:28;;;;;;;3.70;2.30;;;6.80;99.90;;;;;;6152025;23;20171;-90
2022/02/01 07:04:53;;;;;;;5.73;4.13;;;6.70;99.90;;;;;;6126986;23;20550;-89
2022/02/01 07:07:19;;;;;;;0.80;0.80;;;6.80;99.90;;;;;;6102683;23;20194;-89
2022/02/01 07:09:45;;;;;;;0.90;0.90;;;6.70;99.90;;;;;;6151447;23;20209;-91
2022/02/01 07:12:11;;;;;;;1.27;1.10;;;6.80;99.90;;;;;;6127053;23;20261;-90
2022/02/01 07:14:37;;;;;;;2.37;1.47;;;6.80;99.90;;;;;;6126570;23;20163;-91
2022/02/01 07:17:02;;;;;;;10.97;1.37;;;6.80;99.90;;;;;;6149771;23;20319;-90
2022/02/01 07:19:28;;;;;;;3.60;1.53;;;6.80;99.90;;;;;;6177453;23;20597;-90
2022/02/01 07:21:54;;;;;;;10.80;1.93;;;6.90;99.90;;;;;;6102308;23;20218;-92
2022/02/01 07:24:27;;;;;;;1.00;1.00;;;6.90;99.90;;;;;;6177795;23;20262;-91
2022/02/01 07:26:57;;;;;;;3.23;3.00;;;6.80;99.90;;;;;;6130762;23;20151;-91
2022/02/01 07:29:24;;;;;;;1.27;1.17;;;6.90;99.90;;;;;;6161744;23;20171;-92
2022/02/01 07:31:50;;;;;;;0.97;0.97;;;6.90;99.90;;;;;;6151658;23;20244;-91
2022/02/01 07:34:16;;;;;;;5.20;1.07;;;7.00;99.90;;;;;;6102624;23;20276;-90
2022/02/01 07:36:43;;;;;;;1.83;1.30;;;7.00;99.90;;;;;;6127110;23;20448;-89
2022/02/01 07:39:09;;;;;;;1.23;0.73;;;7.00;99.90;;;;;;6152151;23;20214;-92
2022/02/01 07:41:36;;;;;;;4.07;1.40;;;7.00;99.90;;;;;;6151672;23;20195;-94
2022/02/01 07:44:03;;;;;;;0.40;0.40;;;7.10;99.90;;;;;;6179071;23;20669;-93
2022/02/01 07:46:30;;;;;;;0.90;0.90;;;7.10;99.90;;;;;;6152082;23;20194;-91
2022/02/01 07:48:55;;;;;;;1.80;1.70;;;7.20;99.90;;;;;;6102875;23;20205;-92
2022/02/01 07:51:21;;;;;;;0.97;0.97;;;7.20;99.90;;;;;;6152239;23;20194;-90
2022/02/01 07:53:47;;;;;;;0.90;0.70;;;7.20;99.90;;;;;;6102581;23;20163;-91
2022/02/01 07:56:13;;;;;;;1.13;1.03;;;7.20;99.90;;;;;;6151765;23;20159;-91
2022/02/01 07:58:39;;;;;;;0.97;0.97;;;7.20;99.90;;;;;;6177641;23;20278;-92
2022/02/01 08:01:05;;;;;;;0.77;0.60;;;7.30;99.90;;;;;;6177725;23;20205;-92
2022/02/01 08:03:31;;;;;;;0.30;0.30;;;7.30;99.90;;;;;;6126602;23;20198;-91
2022/02/01 08:05:58;;;;;;;1.33;1.23;;;7.40;99.90;;;;;;6151499;23;20215;-91
2022/02/01 08:08:24;;;;;;;0.73;0.73;;;7.40;99.90;;;;;;6177913;23;20325;-92
2022/02/01 08:10:52;;;;;;;1.17;0.80;;;7.40;99.90;;;;;;6151055;23;20589;-92
2022/02/01 08:19:29;;;;;;;0.87;0.87;;;7.40;99.90;;;;;;6040041;23;20215;-91
2022/02/01 08:21:56;;;;;;;0.80;0.80;;;7.50;99.90;;;;;;6111165;23;20210;-91
2022/02/01 08:24:22;;;;;;;8.07;1.37;;;7.50;99.90;;;;;;6151334;23;20221;-92
2022/02/01 08:26:48;;;;;;;2.63;2.37;;;7.50;99.90;;;;;;6127019;23;20807;-92
2022/02/01 08:29:15;;;;;;;5.87;1.43;;;7.60;99.90;;;;;;6152332;23;20625;-91
2022/02/01 08:31:40;;;;;;;0.63;0.63;;;7.60;99.90;;;;;;6177086;23;20277;-92
2022/02/01 08:34:06;;;;;;;1.27;1.17;;;7.60;99.90;;;;;;6102159;23;20556;-92
2022/02/01 08:36:32;;;;;;;1.47;1.27;;;7.70;99.90;;;;;;6151425;23;20618;-92
2022/02/01 08:38:58;;;;;;;1.03;0.63;;;7.70;99.90;;;;;;6146823;23;20213;-89
2022/02/01 08:41:26;;;;;;;0.77;0.77;;;7.70;99.90;;;;;;6154276;23;20209;-90
2022/02/01 08:43:53;;;;;;;1.33;0.80;;;7.70;99.90;;;;;;6155370;23;20213;-92
2022/02/01 08:46:20;;;;;;;2.07;1.33;;;7.70;99.90;;;;;;6172206;23;20202;-92
2022/02/01 08:48:46;;;;;;;1.13;1.03;;;7.80;99.90;;;;;;6150685;23;20208;-93
2022/02/01 08:51:12;;;;;;;2.77;1.40;;;7.80;99.90;;;;;;6126883;23;20274;-91
2022/02/01 08:53:55;;;;;;;1.13;1.10;;;7.70;99.90;;;;;;6151008;23;20163;-93
2022/02/01 08:59:12;;;;;;;1.23;0.77;;;7.80;99.90;;;;;;6109602;23;20210;-92
2022/02/01 09:01:38;;;;;;;2.73;1.93;;;7.80;99.90;;;;;;6101922;23;20213;-91
2022/02/01 09:04:04;;;;;;;0.97;0.90;;;7.90;99.90;;;;;;6151143;23;20198;-90
2022/02/01 09:06:30;;;;;;;0.47;0.47;;;7.90;99.90;;;;;;6125973;23;20247;-94
2022/02/01 09:08:55;;;;;;;0.90;0.90;;;7.90;99.90;;;;;;6126840;23;20198;-90
2022/02/01 09:11:21;;;;;;;0.57;0.57;;;8.00;99.90;;;;;;6177330;23;20186;-93
2022/02/01 09:13:49;;;;;;;0.60;0.60;;;7.90;99.90;;;;;;6150522;23;20199;-93
2022/02/01 09:16:14;;;;;;;0.80;0.80;;;8.00;99.90;;;;;;6151049;23;20202;-91
2022/02/01 09:18:40;;;;;;;0.47;0.47;;;8.10;99.90;;;;;;6126199;23;20207;-92
2022/02/01 09:21:06;;;;;;;2.63;0.70;;;8.00;99.90;;;;;;6101259;23;20554;-93
2022/02/01 09:23:34;;;;;;;1.13;0.97;;;8.00;99.90;;;;;;6102870;23;20167;-91
2022/02/01 09:26:00;;;;;;;1.73;1.60;;;8.10;99.90;;;;;;6175983;23;20649;-94
2022/02/01 09:28:27;;;;;;;3.23;1.67;;;8.10;99.90;;;;;;6151572;23;20196;-92
2022/02/01 09:30:53;;;;;;;5.40;1.10;;;8.10;99.90;;;;;;6101764;23;20665;-91
2022/02/01 09:33:19;;;;;;;1.17;1.00;;;8.20;99.90;;;;;;6126397;23;20195;-92
2022/02/01 09:35:44;;;;;;;1.50;1.40;;;8.20;99.90;;;;;;6125572;23;20625;-91
2022/02/01 09:38:12;;;;;;;1.53;1.43;;;8.20;99.90;;;;;;6127137;23;20878;-92
2022/02/01 09:40:40;;;;;;;0.83;0.83;;;8.20;99.90;;;;;;6175752;23;20218;-92
2022/02/01 09:43:06;;;;;;;1.20;1.10;;;8.40;99.90;;;;;;6150112;23;20202;-93
2022/02/01 09:45:34;;;;;;;0.50;0.50;;;8.30;99.90;;;;;;6150223;23;20278;-95
2022/02/01 09:48:01;;;;;;;1.00;0.90;;;8.40;99.90;;;;;;6126437;23;20187;-93
2022/02/01 09:50:28;;;;;;;2.60;0.77;;;8.40;99.90;;;;;;6128800;23;20167;-93
2022/02/01 09:52:53;;;;;;;6.40;0.77;;;8.30;99.90;;;;;;6126637;23;20199;-91
2022/02/01 09:55:22;;;;;;;0.77;0.77;;;8.40;99.90;;;;;;6152656;23;20657;-91
2022/02/01 09:57:56;;;;;;;0.20;0.20;;;8.40;99.90;;;;;;6126654;23;20218;-89
2022/02/01 10:00:23;;;;;;;3.10;0.70;;;8.50;99.90;;;;;;6125915;23;20207;-89
2022/02/01 10:02:55;;;;;;;0.57;0.57;;;8.40;99.90;;;;;;6177266;23;20155;-94
2022/02/01 10:05:21;;;;;;;1.43;0.67;;;8.40;99.90;;;;;;6178714;23;20651;-90
2022/02/01 10:07:54;;;;;;;1.13;1.07;;;8.50;99.90;;;;;;6126701;23;20199;-92
2022/02/01 10:10:22;;;;;;;4.23;1.03;;;8.50;99.90;;;;;;6151903;23;20202;-91
2022/02/01 10:13:08;;;;;;;1.30;0.83;;;8.50;99.90;;;;;;6178027;23;20209;-93
2022/02/01 10:15:34;;;;;;;0.77;0.50;;;8.50;99.90;;;;;;6177896;23;20194;-93
2022/02/01 10:18:03;;;;;;;2.70;1.60;;;8.50;99.90;;;;;;6152319;23;20190;-92
2022/02/01 10:20:36;;;;;;;2.40;0.67;;;8.60;99.90;;;;;;6151530;23;20209;-93
2022/02/01 10:23:24;;;;;;;2.47;1.80;;;8.50;99.90;;;;;;6152187;23;20296;-94
2022/02/01 10:26:04;;;;;;;0.47;0.47;;;8.50;99.90;;;;;;6179264;23;20217;-92
2022/02/01 10:31:43;;;;;;;0.50;0.50;;;8.60;99.90;;;;;;6182586;23;20246;-94
2022/02/01 10:36:51;;;;;;;5.53;1.63;;;8.60;99.90;;;;;;6176429;23;20236;-88
2022/02/01 10:39:23;;;;;;;0.90;0.90;;;8.60;99.90;;;;;;6125930;23;20210;-89
2022/02/01 10:41:52;;;;;;;9.37;1.57;;;8.80;99.90;;;;;;6149913;23;20229;-90
2022/02/01 10:44:19;;;;;;;2.97;2.47;;;8.80;99.90;;;;;;6179221;23;20170;-88
2022/02/01 10:46:52;;;;;;;7.53;2.53;;;8.70;99.90;;;;;;6164015;23;20250;-93
2022/02/01 10:49:32;;;;;;;22.23;1.77;;;8.80;99.90;;;;;;6204740;23;20210;-92
2022/02/01 10:52:07;;;;;;;16.53;1.53;;;8.80;99.90;;;;;;6179803;23;20200;-90
2022/02/01 10:54:37;;;;;;;22.93;2.50;;;8.80;99.90;;;;;;6152430;23;20237;-90
2022/02/01 10:57:05;;;;;;;2.17;2.00;;;8.80;99.90;;;;;;6127126;23;20194;-92
2022/02/01 10:59:31;;;;;;;9.47;1.70;;;8.70;99.90;;;;;;6179571;23;20825;-92
2022/02/01 11:02:00;;;;;;;1.83;1.03;;;8.70;99.90;;;;;;6151870;23;20195;-90
2022/02/01 11:04:28;;;;;;;2.33;1.00;;;8.70;99.90;;;;;;6152910;23;20195;-93
2022/02/01 11:06:55;;;;;;;0.30;0.30;;;8.70;99.90;;;;;;6153848;23;20203;-93
2022/02/01 11:09:22;;;;;;;1.97;0.47;;;8.80;99.90;;;;;;6178719;23;20685;-92
2022/02/01 11:11:56;;;;;;;0.53;0.53;;;8.80;99.90;;;;;;6127685;23;20159;-91
2022/02/01 11:14:24;;;;;;;0.70;0.70;;;8.80;99.90;;;;;;6129135;23;20162;-93
2022/02/01 11:17:01;;;;;;;10.87;1.97;;;8.80;99.90;;;;;;6155431;23;20668;-94
2022/02/01 11:19:27;;;;;;;4.23;1.00;;;8.70;99.90;;;;;;6155735;23;20239;-93
2022/02/01 11:21:54;;;;;;;1.13;1.07;;;8.80;99.90;;;;;;6130395;23;20210;-94
2022/02/01 11:24:48;;;;;;;3.93;2.60;;;8.90;99.90;;;;;;6108826;23;20693;-93
2022/02/01 11:27:18;;;;;;;2.30;0.63;;;8.90;99.90;;;;;;6182942;23;20191;-93
2022/02/01 11:32:34;;;;;;;4.43;1.43;;;8.90;99.90;;;;;;6156952;23;20151;-91
2022/02/01 11:35:06;;;;;;;1.13;1.07;;;9.00;99.90;;;;;;6178337;23;20494;-93
2022/02/01 11:37:31;;;;;;;1.20;1.10;;;9.00;99.90;;;;;;6152831;23;20205;-90
2022/02/01 11:39:58;;;;;;;1.50;0.50;;;9.00;99.90;;;;;;6127600;23;20211;-92
2022/02/01 11:42:35;;;;;;;0.67;0.67;;;9.10;99.90;;;;;;6128176;23;20281;-92
2022/02/01 11:45:03;;;;;;;1.23;0.40;;;9.10;99.90;;;;;;6152070;23;20197;-89
2022/02/01 11:47:37;;;;;;;1.07;1.03;;;9.10;99.90;;;;;;6152308;23;20187;-94
2022/02/01 11:50:12;;;;;;;5.53;0.80;;;9.10;99.90;;;;;;6178062;23;20537;-93
2022/02/01 11:52:51;;;;;;;0.20;0.20;;;9.10;99.90;;;;;;6151704;23;20198;-91
2022/02/01 11:55:19;;;;;;;1.20;1.17;;;9.10;99.90;;;;;;6178230;23;20241;-89
2022/02/01 11:57:49;;;;;;;3.93;1.33;;;9.20;99.90;;;;;;6126665;23;20724;-90
2022/02/01 12:00:25;;;;;;;2.43;0.87;;;9.20;99.90;;;;;;6178626;23;20206;-95
2022/02/01 12:03:01;;;;;;;0.60;0.60;;;9.20;99.90;;;;;;6150946;23;20163;-93
2022/02/01 12:05:29;;;;;;;2.83;1.20;;;9.20;99.90;;;;;;6179301;23;20147;-94
2022/02/01 12:08:13;;;;;;;12.73;2.03;;;9.10;99.90;;;;;;6151899;23;20277;-91
2022/02/01 12:10:47;;;;;;;0.20;0.20;;;9.10;99.90;;;;;;6152701;23;20269;-93
2022/02/01 12:13:15;;;;;;;1.90;1.30;;;9.30;99.90;;;;;;6179485;23;20208;-91
2022/02/01 12:15:43;;;;;;;1.70;1.60;;;9.30;99.90;;;;;;6150838;23;20191;-92
2022/02/01 12:18:27;;;;;;;0.80;0.67;;;9.40;99.90;;;;;;6150872;23;20191;-90
2022/02/01 12:21:04;;;;;;;1.67;1.57;;;9.50;99.90;;;;;;6177316;23;20154;-90
2022/02/01 12:23:31;;;;;;;2.37;1.00;;;9.40;99.90;;;;;;6178483;23;20159;-90
2022/02/01 12:25:56;;;;;;;3.60;0.80;;;9.50;99.90;;;;;;6150645;23;20201;-92
2022/02/01 12:28:28;;;;;;;0.67;0.60;;;9.50;99.90;;;;;;6127051;23;20536;-92
2022/02/01 12:31:10;;;;;;;2.03;1.17;;;9.50;99.90;;;;;;6150787;23;20527;-92
2022/02/01 12:33:43;;;;;;;1.47;1.37;;;9.60;99.90;;;;;;6150571;23;20186;-89
2022/02/01 12:36:11;;;;;;;1.40;1.07;;;9.60;99.90;;;;;;6151073;23;20500;-92
2022/02/01 12:38:37;;;;;;;1.10;1.07;;;9.60;99.90;;;;;;6151283;23;20569;-92
2022/02/01 12:41:16;;;;;;;1.00;0.67;;;9.60;99.90;;;;;;6125961;23;20397;-91
2022/02/01 12:45:45;;;;;;;0.33;0.33;;;9.70;99.90;;;;;;6128468;23;20213;-91
2022/02/01 12:46:52;;;;;;;4.00;0.50;;;9.60;99.90;;;;;;6176504;23;20201;-92
2022/02/01 12:49:30;;;;;;;0.73;0.70;;;9.60;99.90;;;;;;6176809;23;20202;-92
2022/02/01 12:51:56;;;;;;;1.40;1.30;;;9.70;99.90;;;;;;6176980;23;20218;-92
2022/02/01 12:54:30;;;;;;;0.20;0.20;;;9.70;99.90;;;;;;6130905;23;20185;-93
2022/02/01 12:57:16;;;;;;;1.40;0.30;;;9.70;99.90;;;;;;6192445;23;20177;-88
2022/02/01 12:59:52;;;;;;;8.03;0.97;;;9.80;99.90;;;;;;6194617;23;20638;-92
2022/02/01 13:02:22;;;;;;;0.40;0.40;;;9.70;99.90;;;;;;6152166;23;20146;-93
2022/02/01 13:04:54;;;;;;;0.20;0.20;;;9.70;99.90;;;;;;6150971;23;20190;-94
2022/02/01 13:20:05;;;;;;;1.50;0.87;;;9.70;99.90;;;;;;6177324;23;20665;-91
2022/02/01 13:21:18;;;;;;;1.50;0.40;;;9.80;99.90;;;;;;6154433;23;20442;-93
2022/02/01 13:23:46;;;;;;;2.53;0.30;;;9.70;99.90;;;;;;6150769;23;20147;-91
2022/02/01 13:26:15;;;;;;;9.80;2.23;;;9.80;99.90;;;;;;6151804;23;20167;-93
2022/02/01 13:28:43;;;;;;;2.03;0.57;;;9.80;99.90;;;;;;6126031;23;20198;-91
2022/02/01 13:31:18;;;;;;;0.37;0.37;;;9.80;99.90;;;;;;6125376;23;20240;-89
2022/02/01 13:33:49;;;;;;;1.30;1.20;;;9.80;99.90;;;;;;6151451;23;20216;-90
2022/02/01 13:36:16;;;;;;;0.27;0.20;;;9.90;99.90;;;;;;6149406;23;20209;-88
2022/02/01 13:38:56;;;;;;;6.30;0.73;;;9.90;99.90;;;;;;6151001;23;20617;-91
2022/02/01 13:41:25;;;;;;;0.33;0.33;;;9.90;99.90;;;;;;6151086;23;20206;-90
2022/02/01 13:43:55;;;;;;;2.30;0.37;;;9.90;99.90;;;;;;6151111;23;20209;-91
2022/02/01 13:46:32;;;;;;;5.30;2.57;;;10.00;99.90;;;;;;6151457;23;20301;-93
2022/02/01 13:49:05;;;;;;;2.57;0.37;;;10.00;99.90;;;;;;6176239;23;20206;-91
2022/02/01 13:51:43;;;;;;;10.03;3.93;;;10.00;99.90;;;;;;6151966;23;20253;-92
2022/02/01 13:54:09;;;;;;;3.10;0.93;;;10.10;99.90;;;;;;6176228;23;20198;-89
2022/02/01 13:56:36;;;;;;;3.33;1.77;;;10.10;99.90;;;;;;6126250;23;20241;-92
2022/02/01 13:59:08;;;;;;;1.33;0.57;;;10.20;99.90;;;;;;6150517;23;20296;-92
2022/02/01 14:01:40;;;;;;;4.03;1.23;;;10.10;99.90;;;;;;6178156;23;20214;-93
2022/02/01 14:04:12;;;;;;;2.70;1.43;;;10.10;99.90;;;;;;6178663;23;20245;-93
2022/02/01 14:09:22;;;;;;;5.77;0.53;;;10.20;99.90;;;;;;6176466;23;20546;-93
2022/02/01 14:12:11;;;;;;;1.17;0.73;;;10.30;99.90;;;;;;6155285;23;20162;-94
2022/02/01 14:25:44;;;;;;;22.83;1.77;;;10.20;99.90;;;;;;6180924;23;20213;-92
2022/02/01 14:36:14;;;;;;;4.73;1.27;;;10.10;99.90;;;;;;6159601;23;20198;-93
2022/02/01 14:44:26;;;;;;;1.37;0.63;;;9.90;99.90;;;;;;6161377;23;20271;-94
2022/02/01 14:46:49;;;;;;;0.40;0.40;;;10.00;99.90;;;;;;6163343;23;20203;-91
2022/02/01 14:49:15;;;;;;;2.27;0.77;;;10.00;99.90;;;;;;6160854;23;20594;-93
2022/02/01 14:51:41;;;;;;;0.40;0.40;;;10.00;99.90;;;;;;6159823;23;20587;-94
2022/02/01 14:54:11;;;;;;;0.50;0.43;;;9.90;99.90;;;;;;6160009;23;20429;-93
2022/02/01 14:56:39;;;;;;;2.63;0.47;;;9.90;99.90;;;;;;6160114;23;20218;-92
2022/02/01 15:07:19;;;;;;;2.30;1.13;;;9.90;99.90;;;;;;6145537;23;20262;-89
2022/02/01 15:12:36;;;;;;;10.50;1.50;;;9.80;99.90;;;;;;6178769;23;20218;-93
2022/02/01 15:15:04;;;;;;;0.97;0.63;;;9.90;99.90;;;;;;6178699;23;20190;-92
2022/02/01 15:17:29;;;;;;;1.03;1.00;;;9.90;99.90;;;;;;6103512;23;20167;-92
2022/02/01 15:19:55;;;;;;;0.20;0.20;;;9.80;99.90;;;;;;6178187;23;20213;-92
2022/02/01 15:22:21;;;;;;;1.17;0.87;;;9.80;99.90;;;;;;6103028;23;20208;-94
2022/02/01 15:24:47;;;;;;;3.57;0.57;;;9.80;99.90;;;;;;6104315;23;20527;-93
2022/02/01 15:27:15;;;;;;;8.07;1.83;;;9.90;99.90;;;;;;6127370;23;20603;-92